map of GLV home
GLV - Airport
Location
City:  Golovin, Alaska, United States
ICAO:PAGL
IATA:GLV
FAA LID:GLV

Details
Type:Airport (Airfield)
Use:Public/Civil
Latitude:6433'02"N (64.550455)
Longitude:16300'26"W (-163.007170)
Datum:WGS 1984
Elevation:61 ft (19 m)
Variation:10.67E (WMM2015v2 magnetic declination)
-0.37 annual change
Runways:1
Longest:4000 × 75 ft (1219 × 23 m)

Time
Time Zone:UTC-9 (DST-8)
Local Time:

Weather
METAR:PAGL 041356Z AUTO 16006KT 9SM -SN OVC004 M06/M06 A3001 RMK AO2 SLP157 P0000 T10561061 FZRANO

Related Locations
Nearby:
Farthest:NZSP: 10665 mi / 17163 km
Amundsen-Scott South Pole Station [Jack F. Paulus Skiway], AQ

Find:

   beyond  
but within

Other Information
Maps:
NOTAMs:
Links:
Sources:

  
  • flag of United States
  • flag of Alaska
  

Sectional Chart

Flight Planning
at skyvector.com

Satellite Image

Google Maps Satellite view

 

Copyright © 2004-2019 Karl L. Swartz. All rights reserved.
The Great Circle Mapper name and logo are trademarks of the Great Circle Mapper.
All other trademarks mentioned herein belong to their respective owners.
Please see credits for attibutions and further copyright information.

  Follow gcmap on Facebook Follow gcmap on Twitter GCmap on LinkedIn

hCard Microformat

Geo Microformat